DNCA

Margaret Ekpo International Airport

Calabar, Nigeria
TAF DNCA 210357Z 2106/2212 00000KT 5000 -RA BKN007 FEW020CB BECMG 2108/2110 22010KT 7000 NSW BKN010 FEW020CB TEMPO 2113/2119 5000 -TSRA BKN008 FEW019CB BECMG 2120/2122 VRB02KT SCT007
Issued Valid From Valid To
Jun-21 @ 03:57 UTC
(6 hours ago)
Jun-21 @ 06:00 UTC
(4 hours ago)
Jun-22 @ 12:00 UTC
(-1 days ago)
Expired Click to View Jun-21 @ 06:00 to Jun-21 @ 08:00
TAF DNCA 210357Z 2106/2212 00000KT 5000 -RA BKN007 FEW020CB
Visibility Clouds Conditions
5,005 meters
  • Broken at 700' AGL
  • Few at 2,000' AGL
  • Light Rain
Becoming Jun-21 @ 08:00 to Jun-21 @ 20:00
BECMG 2108/2110 22010KT 7000 NSW BKN010 FEW020CB
Wind Visibility Clouds Conditions
220° at 10 knots 7,001 meters
  • Broken at 1,000' AGL
  • Few at 2,000' AGL
Temporary Jun-21 @ 13:00 to Jun-21 @ 19:00
TEMPO 2113/2119 5000 -TSRA BKN008 FEW019CB
Visibility Clouds Conditions
5,005 meters
  • Broken at 800' AGL
  • Few at 1,900' AGL
  • Light Thunderstorm
  • Light Rain
Becoming Jun-21 @ 20:00 to Jun-22 @ 12:00
BECMG 2120/2122 VRB02KT SCT007
Wind Visibility Clouds Conditions
Variable at 2 knots 7,001 meters
  • Scattered at 700' AGL
TAF DNCA 210357Z 2106/2212 00000KT 5000 -RA BKN007 FEW020CB BECMG 2108/2110 22010KT 7000 NSW BKN010 FEW020CB TEMPO 2113/2119 5000 -TSRA BKN008 FEW019CB BECMG 2120/2122 VRB02KT SCT007
Issued Jun-21 @ 03:57 UTC
(6 hours ago)
Valid From Jun-21 @ 06:00 UTC
(4 hours ago)
Valid To Jun-22 @ 12:00 UTC
(-1 days ago)
Jun-21 @ 06:00 - Jun-21 @ 08:00
Clouds
  • Broken at 700' AGL
  • Few at 2,000' AGL
Conditions
  • Light Rain
Becoming Jun-21 @ 08:00 - Jun-21 @ 20:00
Wind Visibility
220° at 10 knots 7,001 meters
Clouds
  • Broken at 1,000' AGL
  • Few at 2,000' AGL
Conditions
Temporary Jun-21 @ 13:00 - Jun-21 @ 19:00
Clouds
  • Broken at 800' AGL
  • Few at 1,900' AGL
Conditions
  • Light Thunderstorm
  • Light Rain
Becoming Jun-21 @ 20:00 - Jun-22 @ 12:00
Wind Visibility
Variable at 2 knots 7,001 meters
Clouds
  • Scattered at 700' AGL
Conditions